createdAt,value
2022-07-29T00:00:00.463Z,38.1
2022-07-29T00:05:00.393Z,34.1
2022-07-29T00:10:00.364Z,30.8
2022-07-29T00:15:00.371Z,43.4
2022-07-29T00:20:00.336Z,33.0
2022-07-29T00:25:00.378Z,40.2
2022-07-29T00:30:00.423Z,40.4
2022-07-29T00:35:00.390Z,32.7
2022-07-29T00:40:00.365Z,36.9
2022-07-29T00:45:00.454Z,31.5
2022-07-29T00:50:00.398Z,38.1
2022-07-29T00:55:08.998Z,37.9
2022-07-29T01:00:00.438Z,30.1
2022-07-29T01:05:00.400Z,35.5
2022-07-29T01:10:00.392Z,38.2
2022-07-29T01:15:00.386Z,35.5
2022-07-29T01:20:00.419Z,33.0
2022-07-29T01:25:00.363Z,37.7
2022-07-29T01:30:00.407Z,38.1
2022-07-29T01:35:00.448Z,35.1
2022-07-29T01:40:00.461Z,39.6
2022-07-29T01:45:00.402Z,32.5
2022-07-29T01:50:00.374Z,35.4
2022-07-29T01:55:00.367Z,35.8
2022-07-29T02:00:00.409Z,34.7
2022-07-29T02:05:00.605Z,41.5
2022-07-29T02:10:00.383Z,37.2
2022-07-29T02:15:00.370Z,41.5
2022-07-29T02:20:00.437Z,42.3
2022-07-29T02:25:04.006Z,31.4
2022-07-29T02:30:00.362Z,28.1
2022-07-29T02:35:00.441Z,29.9
2022-07-29T02:40:00.336Z,26.9
2022-07-29T02:45:00.410Z,33.7
2022-07-29T02:50:01.047Z,34.9
2022-07-29T02:55:00.359Z,42.2
2022-07-29T03:00:00.391Z,38.2
2022-07-29T03:05:01.484Z,37.9
2022-07-29T03:10:00.375Z,45.6
2022-07-29T03:15:00.399Z,33.3
2022-07-29T03:20:00.388Z,51.8
2022-07-29T03:25:00.387Z,36.8
2022-07-29T03:30:00.359Z,44.2
2022-07-29T03:35:00.390Z,49.7
2022-07-29T03:40:00.374Z,42.2
2022-07-29T03:45:00.364Z,45.3
2022-07-29T03:50:00.356Z,42.6
2022-07-29T03:55:00.365Z,43.8
2022-07-29T04:00:00.410Z,49.2
2022-07-29T04:05:00.386Z,43.2
2022-07-29T04:10:00.686Z,49.1
2022-07-29T04:15:00.384Z,51.9
2022-07-29T04:20:00.370Z,46.2
2022-07-29T04:25:04.799Z,43.0
2022-07-29T04:30:00.392Z,40.9
2022-07-29T04:35:00.355Z,44.5
2022-07-29T04:40:00.399Z,43.4
2022-07-29T04:45:01.701Z,39.5
2022-07-29T04:50:00.367Z,39.3
2022-07-29T04:55:00.384Z,45.4
2022-07-29T05:00:00.447Z,34.3
2022-07-29T05:05:00.349Z,43.9
2022-07-29T05:10:00.358Z,47.5
2022-07-29T05:15:00.349Z,55.9
2022-07-29T05:20:00.382Z,53.3
2022-07-29T05:25:09.498Z,52.5
2022-07-29T05:30:00.336Z,48.1
2022-07-29T05:35:00.426Z,54.2
2022-07-29T05:40:00.435Z,61.8
2022-07-29T05:45:00.378Z,54.6
2022-07-29T05:50:00.349Z,52.4
2022-07-29T05:55:00.358Z,42.1
2022-07-29T06:00:00.507Z,59.6
2022-07-29T06:05:00.922Z,45.4
2022-07-29T06:10:00.313Z,51.3
2022-07-29T06:15:01.476Z,62.3
2022-07-29T06:20:00.385Z,47.7
2022-07-29T06:25:00.356Z,60.6
2022-07-29T06:30:00.396Z,47.7
2022-07-29T06:35:39.537Z,44.9
2022-07-29T06:40:00.348Z,54.9
2022-07-29T06:45:00.388Z,34.2
2022-07-29T06:50:00.347Z,44.9
2022-07-29T06:55:00.354Z,37.3
2022-07-29T07:00:00.412Z,55.1
2022-07-29T07:05:00.382Z,47.9
2022-07-29T07:10:00.391Z,58.0
2022-07-29T07:15:00.375Z,47.6
2022-07-29T07:20:00.408Z,48.1
2022-07-29T07:25:00.448Z,54.4
2022-07-29T07:30:00.360Z,44.5
2022-07-29T07:35:00.367Z,46.0
2022-07-29T07:40:00.381Z,46.5
2022-07-29T07:45:17.028Z,50.3
2022-07-29T07:50:00.367Z,46.8
2022-07-29T07:55:00.346Z,75.2
2022-07-29T08:00:00.350Z,60.0
2022-07-29T08:05:00.388Z,74.3
2022-07-29T08:10:00.345Z,42.5
2022-07-29T08:15:00.373Z,61.7
2022-07-29T08:20:00.410Z,55.1
2022-07-29T08:25:00.333Z,45.1
2022-07-29T08:30:00.416Z,76.9
2022-07-29T08:35:00.375Z,69.5
2022-07-29T08:40:00.455Z,61.8
2022-07-29T08:45:00.384Z,59.6
2022-07-29T08:50:00.343Z,58.3
2022-07-29T08:55:00.359Z,69.0
2022-07-29T09:00:12.261Z,143.6
2022-07-29T09:05:00.371Z,70.4
2022-07-29T09:10:00.321Z,54.2
2022-07-29T09:15:00.384Z,97.0
2022-07-29T09:20:00.404Z,82.3
2022-07-29T09:25:00.351Z,156.0
2022-07-29T09:30:00.558Z,83.8
2022-07-29T09:35:00.336Z,72.2
2022-07-29T09:40:00.348Z,74.2
2022-07-29T09:45:00.352Z,136.9
2022-07-29T09:50:01.307Z,151.6
2022-07-29T09:55:00.324Z,105.5
2022-07-29T10:00:00.371Z,76.3
2022-07-29T10:05:00.363Z,66.7
2022-07-29T10:10:00.387Z,94.4
2022-07-29T10:15:00.459Z,52.8
2022-07-29T10:20:01.359Z,53.0
2022-07-29T10:25:00.399Z,73.3
2022-07-29T10:30:00.383Z,82.1
2022-07-29T10:35:00.386Z,81.6
2022-07-29T10:40:00.392Z,79.8
2022-07-29T10:45:00.335Z,80.7
2022-07-29T10:50:01.937Z,112.1
2022-07-29T10:55:00.425Z,138.6
2022-07-29T11:00:00.383Z,97.8
2022-07-29T11:05:00.336Z,104.7
2022-07-29T11:10:00.494Z,95.0
2022-07-29T11:15:00.671Z,66.8
2022-07-29T11:20:00.345Z,127.0
2022-07-29T11:25:00.365Z,118.6
2022-07-29T11:30:04.175Z,55.8
2022-07-29T11:35:16.862Z,106.7
2022-07-29T11:40:02.654Z,62.3
2022-07-29T11:45:41.132Z,64.1
2022-07-29T11:50:00.507Z,58.7
2022-07-29T11:55:10.521Z,69.9
2022-07-29T12:00:14.710Z,70.7
2022-07-29T12:05:00.351Z,65.7
2022-07-29T12:10:00.356Z,70.1
2022-07-29T12:15:02.174Z,96.7
2022-07-29T12:20:02.728Z,71.4
2022-07-29T12:25:32.174Z,59.1
2022-07-29T12:30:00.429Z,96.9
2022-07-29T12:35:00.327Z,111.7
2022-07-29T12:40:00.487Z,122.5
2022-07-29T12:45:00.343Z,67.4
2022-07-29T12:50:00.372Z,63.4
2022-07-29T12:55:00.341Z,70.8
2022-07-29T13:00:00.440Z,111.6
2022-07-29T13:05:01.386Z,114.3
2022-07-29T13:10:00.361Z,162.6
2022-07-29T13:15:00.341Z,104.3
2022-07-29T13:20:00.848Z,141.2
2022-07-29T13:25:00.329Z,183.7
2022-07-29T13:30:00.401Z,102.8
2022-07-29T13:35:00.328Z,84.5
2022-07-29T13:40:00.969Z,49.4
2022-07-29T13:45:00.689Z,122.5
2022-07-29T13:50:00.444Z,76.2
2022-07-29T13:55:00.541Z,50.9
2022-07-29T14:00:00.443Z,114.3
2022-07-29T14:05:09.007Z,91.1
2022-07-29T14:10:00.386Z,87.5
2022-07-29T14:15:00.397Z,120.9
2022-07-29T14:20:00.402Z,67.9
2022-07-29T14:25:15.852Z,90.3
2022-07-29T14:30:00.392Z,65.8
2022-07-29T14:35:00.370Z,59.9
2022-07-29T14:40:00.399Z,63.6
2022-07-29T14:45:00.587Z,50.9
2022-07-29T14:50:00.378Z,92.5
2022-07-29T14:55:00.382Z,75.3
2022-07-29T15:00:00.401Z,102.8
2022-07-29T15:05:00.377Z,179.1
2022-07-29T15:10:00.386Z,140.1
2022-07-29T15:15:00.358Z,70.1
2022-07-29T15:20:00.407Z,62.8
2022-07-29T15:25:00.336Z,62.0
2022-07-29T15:30:00.403Z,64.7
2022-07-29T15:35:00.365Z,72.7
2022-07-29T15:40:00.644Z,59.2
2022-07-29T15:45:00.365Z,68.3
2022-07-29T15:50:00.436Z,78.1
2022-07-29T15:55:00.314Z,63.0
2022-07-29T16:00:00.399Z,105.1
2022-07-29T16:05:00.385Z,82.7
2022-07-29T16:10:00.399Z,78.5
2022-07-29T16:15:01.599Z,61.9
2022-07-29T16:20:00.500Z,73.4
2022-07-29T16:25:00.520Z,60.0
2022-07-29T16:30:02.234Z,72.6
2022-07-29T16:35:00.370Z,62.4
2022-07-29T16:40:00.823Z,62.0
2022-07-29T16:45:02.985Z,65.4
2022-07-29T16:50:00.374Z,56.8
2022-07-29T16:55:00.328Z,67.8
2022-07-29T17:00:00.490Z,49.0
2022-07-29T17:05:03.132Z,63.3
2022-07-29T17:10:04.527Z,69.8
2022-07-29T17:15:00.355Z,60.7
2022-07-29T17:20:00.441Z,67.1
2022-07-29T17:25:01.037Z,58.3
2022-07-29T17:30:00.411Z,58.4
2022-07-29T17:35:00.324Z,64.4
2022-07-29T17:40:00.990Z,63.1
2022-07-29T17:45:00.378Z,53.7
2022-07-29T17:50:00.412Z,51.7
2022-07-29T17:55:00.345Z,69.1
2022-07-29T18:00:00.406Z,61.2
2022-07-29T18:05:02.868Z,59.8
2022-07-29T18:10:01.348Z,66.0
2022-07-29T18:15:00.332Z,60.1
2022-07-29T18:20:00.376Z,64.3
2022-07-29T18:25:00.333Z,56.8
2022-07-29T18:30:05.226Z,59.7
2022-07-29T18:35:00.356Z,58.5
2022-07-29T18:40:00.373Z,60.8
2022-07-29T18:45:00.354Z,58.6
2022-07-29T18:50:00.369Z,65.4
2022-07-29T18:55:00.300Z,56.1
2022-07-29T19:00:00.402Z,56.4
2022-07-29T19:05:00.347Z,53.9
2022-07-29T19:10:00.408Z,52.7
2022-07-29T19:15:00.417Z,56.9
2022-07-29T19:20:00.370Z,59.6
2022-07-29T19:25:00.479Z,52.3
2022-07-29T19:30:00.438Z,62.9
2022-07-29T19:35:00.365Z,49.2
2022-07-29T19:40:00.440Z,51.1
2022-07-29T19:45:00.438Z,47.2
2022-07-29T19:50:00.396Z,41.6
2022-07-29T19:55:08.147Z,41.7
2022-07-29T20:00:00.383Z,53.2
2022-07-29T20:05:00.332Z,48.3
2022-07-29T20:10:00.344Z,49.7
2022-07-29T20:15:00.371Z,50.0
2022-07-29T20:20:00.394Z,45.6
2022-07-29T20:25:00.311Z,45.1
2022-07-29T20:30:00.385Z,46.9
2022-07-29T20:35:00.318Z,48.4
2022-07-29T20:40:00.421Z,50.5
2022-07-29T20:45:00.366Z,58.7
2022-07-29T20:50:00.363Z,47.3
2022-07-29T20:55:00.306Z,67.4
2022-07-29T21:00:00.412Z,53.3
2022-07-29T21:05:00.302Z,52.7
2022-07-29T21:10:00.417Z,53.6
2022-07-29T21:15:00.349Z,52.6
2022-07-29T21:20:00.366Z,56.2
2022-07-29T21:25:00.322Z,51.8
2022-07-29T21:30:00.637Z,55.7
2022-07-29T21:35:00.305Z,62.4
2022-07-29T21:40:00.395Z,64.3
2022-07-29T21:45:00.385Z,53.1
2022-07-29T21:50:00.371Z,48.4
2022-07-29T21:55:00.304Z,50.3
2022-07-29T22:00:03.644Z,70.8
2022-07-29T22:05:00.316Z,63.1
2022-07-29T22:10:00.416Z,53.2
2022-07-29T22:15:00.368Z,67.3
2022-07-29T22:20:00.364Z,64.8
2022-07-29T22:25:00.382Z,77.9
2022-07-29T22:30:00.396Z,60.4
2022-07-29T22:35:00.301Z,56.0
2022-07-29T22:40:00.425Z,53.7
2022-07-29T22:45:00.469Z,51.0
2022-07-29T22:50:00.528Z,57.2
2022-07-29T22:55:00.486Z,54.1
2022-07-29T23:00:00.513Z,51.5
2022-07-29T23:05:00.398Z,53.8
2022-07-29T23:10:00.379Z,46.9
2022-07-29T23:15:00.346Z,50.6
2022-07-29T23:20:01.261Z,49.4
2022-07-29T23:25:00.317Z,52.4
2022-07-29T23:30:00.386Z,40.9
2022-07-29T23:35:00.435Z,54.0
2022-07-29T23:40:00.314Z,47.1
2022-07-29T23:45:00.355Z,52.3
2022-07-29T23:50:00.391Z,41.7
2022-07-29T23:55:36.270Z,44.8
